createdAt,value
2022-11-28T00:03:45.140Z,54.5
2022-11-28T00:09:04.005Z,53.6
2022-11-28T00:14:22.590Z,53.7
2022-11-28T00:19:46.711Z,54.5
2022-11-28T00:25:05.425Z,54.5
2022-11-28T00:30:23.988Z,54.2
2022-11-28T00:35:42.746Z,54.4
2022-11-28T00:41:01.473Z,54.1
2022-11-28T00:46:19.984Z,54.4
2022-11-28T00:51:38.295Z,53.6
2022-11-28T00:56:56.713Z,53.6
2022-11-28T01:02:15.317Z,53.5
2022-11-28T01:07:33.493Z,53.8
2022-11-28T01:12:51.988Z,54.1
2022-11-28T01:18:10.360Z,53.5
2022-11-28T01:23:28.835Z,53.8
2022-11-28T01:28:47.622Z,54.3
2022-11-28T01:34:05.935Z,54
2022-11-28T01:39:24.703Z,53.6
2022-11-28T01:44:44.407Z,54.7
2022-11-28T01:50:02.762Z,54.2
2022-11-28T01:55:20.951Z,54
2022-11-28T02:00:39.668Z,53.5
2022-11-28T02:05:58.251Z,54.2
2022-11-28T02:11:16.732Z,54.2
2022-11-28T02:16:35.471Z,53.6
2022-11-28T02:21:53.854Z,53.4
2022-11-28T02:27:12.365Z,54.2
2022-11-28T02:32:30.829Z,54.3
2022-11-28T02:37:49.423Z,54.2
2022-11-28T02:43:08.198Z,54.1
2022-11-28T02:48:26.649Z,54
2022-11-28T02:53:44.981Z,53.6
2022-11-28T02:59:03.747Z,54.1
2022-11-28T03:04:22.164Z,53.3
2022-11-28T03:09:40.433Z,53.9
2022-11-28T03:14:58.910Z,53.9
2022-11-28T03:20:17.915Z,53.5
2022-11-28T03:25:36.678Z,54
2022-11-28T03:30:55.181Z,54.2
2022-11-28T03:36:13.675Z,53.5
2022-11-28T03:41:31.977Z,53.2
2022-11-28T03:46:50.414Z,53.8
2022-11-28T03:52:08.542Z,53.1
2022-11-28T03:57:27.146Z,53.1
2022-11-28T04:02:45.890Z,53.8
2022-11-28T04:08:04.569Z,53.8
2022-11-28T04:13:22.808Z,53.4
2022-11-28T04:18:41.276Z,53.2
2022-11-28T04:23:59.728Z,54
2022-11-28T04:29:18.366Z,53.2
2022-11-28T04:34:36.869Z,54.1
2022-11-28T04:39:55.555Z,53.7
2022-11-28T04:45:14.178Z,53.2
2022-11-28T04:50:32.658Z,53.8
2022-11-28T04:55:51.349Z,53.6
2022-11-28T05:01:09.755Z,53.6
2022-11-28T05:06:27.697Z,53.8
2022-11-28T05:11:46.184Z,53.3
2022-11-28T05:17:04.845Z,53.5
2022-11-28T05:22:23.343Z,53.9
2022-11-28T05:27:42.293Z,54.3
2022-11-28T05:33:00.924Z,53.6
2022-11-28T05:38:19.124Z,53.5
2022-11-28T05:43:38.146Z,53.4
2022-11-28T05:48:56.902Z,53.6
2022-11-28T05:54:15.673Z,53.6
2022-11-28T05:59:34.672Z,53.2
2022-11-28T06:04:53.413Z,53.7
2022-11-28T06:10:12.261Z,53.8
2022-11-28T06:15:38.832Z,53.8
2022-11-28T06:20:57.126Z,53.2
2022-11-28T06:26:15.040Z,53.9
2022-11-28T06:31:33.741Z,53.9
2022-11-28T06:36:36.690Z,53.4
2022-11-28T06:41:54.897Z,54
2022-11-28T06:47:13.838Z,54
2022-11-28T06:52:32.176Z,53.2
2022-11-28T06:57:50.947Z,53.3
2022-11-28T07:03:09.337Z,53.4
2022-11-28T07:08:27.576Z,54.2
2022-11-28T07:13:46.108Z,53.3
2022-11-28T07:19:04.334Z,53.7
2022-11-28T07:24:22.945Z,54.1
2022-11-28T07:29:42.502Z,53.7
2022-11-28T07:35:01.390Z,53.1
2022-11-28T07:40:19.977Z,53
2022-11-28T07:46:02.185Z,47.7
2022-11-28T07:51:20.473Z,49.9
2022-11-28T07:57:14.061Z,51.5
2022-11-28T08:02:32.591Z,52.9
2022-11-28T08:07:51.189Z,53.4
2022-11-28T08:13:09.116Z,53.1
2022-11-28T08:18:27.603Z,53.2
2022-11-28T08:23:46.098Z,52.5
2022-11-28T08:29:04.585Z,53
2022-11-28T08:34:23.058Z,53.5
2022-11-28T08:39:42.760Z,52.9
2022-11-28T08:45:01.643Z,53.6
2022-11-28T08:50:20.202Z,52.7
2022-11-28T08:55:42.377Z,53.7
2022-11-28T09:01:00.821Z,53.1
2022-11-28T09:06:19.318Z,53.4
2022-11-28T09:11:37.556Z,53.4
2022-11-28T09:16:55.947Z,53.3
2022-11-28T09:22:14.512Z,52.9
2022-11-28T09:27:35.963Z,53
2022-11-28T09:32:54.445Z,53.4
2022-11-28T09:38:12.918Z,52.7
2022-11-28T09:43:30.906Z,52.5
2022-11-28T09:48:49.074Z,52.4
2022-11-28T09:54:07.298Z,53.2
2022-11-28T09:59:25.833Z,52.8
2022-11-28T10:04:44.808Z,53.5
2022-11-28T10:10:03.008Z,53.2
2022-11-28T10:15:21.569Z,53.3
2022-11-28T10:20:39.464Z,53.4
2022-11-28T10:25:57.397Z,53.3
2022-11-28T10:31:15.751Z,52.6
2022-11-28T10:36:33.736Z,52.3
2022-11-28T10:41:52.477Z,52.4
2022-11-28T10:47:11.028Z,52.4
2022-11-28T10:52:29.277Z,52.7
2022-11-28T10:57:48.060Z,52.2
2022-11-28T11:03:06.643Z,52.3
2022-11-28T11:08:24.933Z,52.8
2022-11-28T11:13:43.554Z,52.6
2022-11-28T11:19:02.090Z,52.2
2022-11-28T11:24:20.045Z,52
2022-11-28T11:29:38.526Z,52.5
2022-11-28T11:34:57.077Z,52.2
2022-11-28T11:40:15.815Z,52
2022-11-28T11:45:34.075Z,52.8
2022-11-28T11:50:52.304Z,52.9
2022-11-28T11:56:10.765Z,52.8
2022-11-28T12:01:28.711Z,53
2022-11-28T12:06:47.223Z,52.8
2022-11-28T12:12:05.695Z,52.9
2022-11-28T12:17:55.947Z,52.9
2022-11-28T12:23:18.185Z,52.1
2022-11-28T12:28:36.394Z,52.8
2022-11-28T12:33:54.896Z,52.8
2022-11-28T12:39:13.227Z,52.5
2022-11-28T12:44:31.470Z,52.8
2022-11-28T12:49:50.243Z,52.5
2022-11-28T12:55:08.178Z,52.1
2022-11-28T13:00:26.409Z,52
2022-11-28T13:05:45.264Z,52.8
2022-11-28T13:11:03.500Z,52.8
2022-11-28T13:16:27.990Z,52.4
2022-11-28T13:21:46.025Z,52.7
2022-11-28T13:27:04.323Z,52.7
2022-11-28T13:32:22.622Z,52.1
2022-11-28T13:38:50.415Z,52.6
2022-11-28T13:44:13.261Z,51.9
2022-11-28T13:49:31.750Z,52.7
2022-11-28T13:54:50.509Z,51.9
2022-11-28T14:00:09.319Z,52.3
2022-11-28T14:05:27.550Z,51.9
2022-11-28T14:10:46.044Z,52.5
2022-11-28T14:16:04.356Z,51.9
2022-11-28T14:21:22.644Z,52.7
2022-11-28T14:26:40.589Z,52.9
2022-11-28T14:32:31.665Z,52.1
2022-11-28T14:37:50.118Z,52.7
2022-11-28T14:43:08.637Z,51.8
2022-11-28T14:48:27.072Z,52.6
2022-11-28T14:53:45.470Z,52.6
2022-11-28T14:59:03.697Z,51.9
2022-11-28T15:04:22.487Z,52.6
2022-11-28T15:09:40.965Z,52.7
2022-11-28T15:14:59.733Z,53
2022-11-28T15:20:17.968Z,52.9
2022-11-28T15:25:36.443Z,52.2
2022-11-28T15:30:54.907Z,52.9
2022-11-28T15:36:13.710Z,52.9
2022-11-28T15:41:32.451Z,52.1
2022-11-28T15:46:50.534Z,52.4
2022-11-28T15:52:08.833Z,52.2
2022-11-28T15:57:27.049Z,52.7
2022-11-28T16:02:45.257Z,52.4
2022-11-28T16:08:10.562Z,52.8
2022-11-28T16:13:31.841Z,52.9
2022-11-28T16:18:50.037Z,52
2022-11-28T16:24:08.541Z,52.9
2022-11-28T16:29:35.474Z,52.7
2022-11-28T16:34:54.244Z,52.9
2022-11-28T16:40:13.050Z,52.1
2022-11-28T16:45:32.053Z,52.8
2022-11-28T16:50:49.964Z,52.2
2022-11-28T16:56:08.089Z,52
2022-11-28T17:01:26.318Z,52
2022-11-28T17:06:44.814Z,52.6
2022-11-28T17:12:03.317Z,51.9
2022-11-28T17:17:21.501Z,52.1
2022-11-28T17:22:42.080Z,52.6
2022-11-28T17:28:00.312Z,52.3
2022-11-28T17:33:18.221Z,52.2
2022-11-28T17:38:36.417Z,52.6
2022-11-28T17:43:55.228Z,51.8
2022-11-28T17:49:13.786Z,51.6
2022-11-28T17:54:32.529Z,50.3
2022-11-28T17:59:51.327Z,49.6
2022-11-28T18:05:09.801Z,51.1
2022-11-28T18:10:28.561Z,50.1
2022-11-28T18:15:47.148Z,50.4
2022-11-28T18:21:05.473Z,50.5
2022-11-28T18:26:23.672Z,51.1
2022-11-28T18:31:42.312Z,51.7
2022-11-28T18:36:50.715Z,51.1
2022-11-28T18:42:08.917Z,51.8
2022-11-28T18:47:27.177Z,51.6
2022-11-28T18:52:45.917Z,51.3
2022-11-28T18:58:04.418Z,49.9
2022-11-28T19:03:22.651Z,51.7
2022-11-28T19:08:41.407Z,51.5
2022-11-28T19:13:59.580Z,52
2022-11-28T19:19:18.097Z,52.4
2022-11-28T19:24:36.568Z,52.1
2022-11-28T19:29:55.028Z,52.5
2022-11-28T19:35:13.536Z,52.9
2022-11-28T19:40:32.268Z,52.8
2022-11-28T19:45:51.098Z,52.9
2022-11-28T19:51:09.357Z,52.4
2022-11-28T19:56:27.802Z,52.1
2022-11-28T20:01:46.638Z,53.1
2022-11-28T20:07:05.420Z,52.6
2022-11-28T20:12:24.160Z,53.1
2022-11-28T20:17:42.655Z,52.9
2022-11-28T20:23:01.187Z,52.4
2022-11-28T20:28:19.943Z,52.3
2022-11-28T20:33:38.728Z,52.9
2022-11-28T20:38:56.676Z,52.1
2022-11-28T20:44:14.890Z,52.8
2022-11-28T20:49:33.106Z,52.7
2022-11-28T20:54:51.612Z,52.3
2022-11-28T21:00:10.385Z,53
2022-11-28T21:05:28.892Z,52.4
2022-11-28T21:10:47.146Z,52.2
2022-11-28T21:16:05.424Z,52.7
2022-11-28T21:21:24.212Z,52.3
2022-11-28T21:26:54.784Z,52.5
2022-11-28T21:32:13.643Z,53.3
2022-11-28T21:37:32.145Z,53.1
2022-11-28T21:42:50.662Z,53.2
2022-11-28T21:48:08.564Z,53.2
2022-11-28T21:53:27.049Z,53.2
2022-11-28T21:58:45.281Z,52.9
2022-11-28T22:04:04.076Z,52.8
2022-11-28T22:09:22.017Z,53.6
2022-11-28T22:14:40.243Z,52.9
2022-11-28T22:19:58.747Z,53.5
2022-11-28T22:25:17.230Z,53.5
2022-11-28T22:30:35.491Z,52.5
2022-11-28T22:35:54.247Z,53.2
2022-11-28T22:41:13.002Z,53.5
2022-11-28T22:46:31.523Z,53
2022-11-28T22:51:50.051Z,53.5
2022-11-28T22:57:08.237Z,52.7
2022-11-28T23:02:27.398Z,52.9
2022-11-28T23:07:46.328Z,53.4
2022-11-28T23:13:04.815Z,52.7
2022-11-28T23:18:23.595Z,52.8
2022-11-28T23:23:41.807Z,52.7
2022-11-28T23:29:00.000Z,53.3
2022-11-28T23:34:17.986Z,52.7
2022-11-28T23:39:36.173Z,53.1
2022-11-28T23:44:54.382Z,53.4
2022-11-28T23:50:13.165Z,52.8
2022-11-28T23:55:31.629Z,53.6
